Pittsburgh, Pennsylvania
Traffic Map
Current Weather Conditions
Pittsburgh, Pennsylvania
Overcast
Overcast
65°
Feels Like: 65°
Wind Chill: 65° Ceiling: 9000
Heat Index: 65° Visibility: 7mi
Dew Point: 64° Wind: 3mph
Humidity: 97% Direction: 170° (S)
Pressure: 30.02in Gusts: 0mph
Raw Report DataKAGC 141314Z 17003KT 7SM FEW003 BKN090 OVC110 18/18 A3002 RMK AO2 T01830178
Traffic Incident Summary
Active as of:
Severity:
Category:
InformationThere was an issue retrieving the traffic information for this location. Please try a different location or try again shortly.
Advertisements